sensor_id;sensor_type;location;lat;lon;timestamp;temperature;humidity
11577;DHT22;5844;51.496;6.788;2023-06-26T00:00:04;23.20;1.00
11577;DHT22;5844;51.496;6.788;2023-06-26T00:02:30;23.20;1.00
11577;DHT22;5844;51.496;6.788;2023-06-26T00:04:58;23.20;1.00
11577;DHT22;5844;51.496;6.788;2023-06-26T00:07:24;23.20;1.00
11577;DHT22;5844;51.496;6.788;2023-06-26T00:09:49;23.20;1.00
11577;DHT22;5844;51.496;6.788;2023-06-26T00:12:15;23.30;1.00
11577;DHT22;5844;51.496;6.788;2023-06-26T00:14:41;23.20;1.00
11577;DHT22;5844;51.496;6.788;2023-06-26T00:17:06;23.20;1.00
11577;DHT22;5844;51.496;6.788;2023-06-26T00:19:32;23.20;1.00
11577;DHT22;5844;51.496;6.788;2023-06-26T00:21:58;23.10;1.00
11577;DHT22;5844;51.496;6.788;2023-06-26T00:24:24;23.10;1.00
11577;DHT22;5844;51.496;6.788;2023-06-26T00:26:49;23.00;1.00
11577;DHT22;5844;51.496;6.788;2023-06-26T00:29:15;23.00;1.00
11577;DHT22;5844;51.496;6.788;2023-06-26T00:31:41;22.90;1.00
11577;DHT22;5844;51.496;6.788;2023-06-26T00:34:07;22.90;1.00
11577;DHT22;5844;51.496;6.788;2023-06-26T00:36:32;22.80;1.00
11577;DHT22;5844;51.496;6.788;2023-06-26T00:38:59;22.80;1.00
11577;DHT22;5844;51.496;6.788;2023-06-26T00:41:25;22.80;1.00
11577;DHT22;5844;51.496;6.788;2023-06-26T00:43:50;22.70;1.00
11577;DHT22;5844;51.496;6.788;2023-06-26T00:46:17;22.70;1.00
11577;DHT22;5844;51.496;6.788;2023-06-26T00:48:43;22.60;1.00
11577;DHT22;5844;51.496;6.788;2023-06-26T00:51:09;22.60;1.00
11577;DHT22;5844;51.496;6.788;2023-06-26T00:53:35;22.60;1.00
11577;DHT22;5844;51.496;6.788;2023-06-26T00:56:02;22.60;1.00
11577;DHT22;5844;51.496;6.788;2023-06-26T00:58:28;22.60;1.00
11577;DHT22;5844;51.496;6.788;2023-06-26T01:00:54;22.60;1.00
11577;DHT22;5844;51.496;6.788;2023-06-26T01:03:22;22.60;1.00
11577;DHT22;5844;51.496;6.788;2023-06-26T01:05:48;22.60;1.00
11577;DHT22;5844;51.496;6.788;2023-06-26T01:08:16;22.70;1.00
11577;DHT22;5844;51.496;6.788;2023-06-26T01:10:42;22.70;1.00
11577;DHT22;5844;51.496;6.788;2023-06-26T01:13:08;22.70;1.00
11577;DHT22;5844;51.496;6.788;2023-06-26T01:15:34;22.70;1.00
11577;DHT22;5844;51.496;6.788;2023-06-26T01:18:01;22.70;1.00
11577;DHT22;5844;51.496;6.788;2023-06-26T01:20:36;22.80;1.00
11577;DHT22;5844;51.496;6.788;2023-06-26T01:23:24;22.80;1.00
11577;DHT22;5844;51.496;6.788;2023-06-26T01:28:34;22.70;1.00
11577;DHT22;5844;51.496;6.788;2023-06-26T01:31:02;22.70;1.00
11577;DHT22;5844;51.496;6.788;2023-06-26T01:33:28;22.70;1.00
11577;DHT22;5844;51.496;6.788;2023-06-26T01:35:55;22.70;1.00
11577;DHT22;5844;51.496;6.788;2023-06-26T01:38:21;22.60;1.00
11577;DHT22;5844;51.496;6.788;2023-06-26T01:40:49;22.60;1.00
11577;DHT22;5844;51.496;6.788;2023-06-26T01:46:33;22.70;1.00
11577;DHT22;5844;51.496;6.788;2023-06-26T01:49:06;22.60;1.00
11577;DHT22;5844;51.496;6.788;2023-06-26T01:51:41;22.70;1.00
11577;DHT22;5844;51.496;6.788;2023-06-26T01:54:11;22.60;1.00
11577;DHT22;5844;51.496;6.788;2023-06-26T01:56:39;22.60;1.00
11577;DHT22;5844;51.496;6.788;2023-06-26T01:59:07;22.60;1.00
11577;DHT22;5844;51.496;6.788;2023-06-26T02:01:33;22.60;1.00
11577;DHT22;5844;51.496;6.788;2023-06-26T02:03:59;22.50;1.00
11577;DHT22;5844;51.496;6.788;2023-06-26T02:06:25;22.50;1.00
11577;DHT22;5844;51.496;6.788;2023-06-26T02:08:50;22.50;1.00
11577;DHT22;5844;51.496;6.788;2023-06-26T02:11:16;22.50;1.00
11577;DHT22;5844;51.496;6.788;2023-06-26T02:13:42;22.50;1.00
11577;DHT22;5844;51.496;6.788;2023-06-26T02:16:07;22.50;1.00
11577;DHT22;5844;51.496;6.788;2023-06-26T02:18:33;22.50;1.00
11577;DHT22;5844;51.496;6.788;2023-06-26T02:20:58;22.50;1.00
11577;DHT22;5844;51.496;6.788;2023-06-26T02:23:24;22.40;1.00
11577;DHT22;5844;51.496;6.788;2023-06-26T02:25:50;22.40;1.00
11577;DHT22;5844;51.496;6.788;2023-06-26T02:28:16;22.40;1.00
11577;DHT22;5844;51.496;6.788;2023-06-26T02:30:41;22.40;1.00
11577;DHT22;5844;51.496;6.788;2023-06-26T02:33:07;22.30;1.00
11577;DHT22;5844;51.496;6.788;2023-06-26T02:35:32;22.30;1.00
11577;DHT22;5844;51.496;6.788;2023-06-26T02:37:58;22.30;1.00
11577;DHT22;5844;51.496;6.788;2023-06-26T02:40:24;22.30;1.00
11577;DHT22;5844;51.496;6.788;2023-06-26T02:42:49;22.30;1.00
11577;DHT22;5844;51.496;6.788;2023-06-26T02:45:15;22.30;1.00
11577;DHT22;5844;51.496;6.788;2023-06-26T02:47:40;22.30;1.00
11577;DHT22;5844;51.496;6.788;2023-06-26T02:50:07;22.30;1.00
11577;DHT22;5844;51.496;6.788;2023-06-26T02:52:32;22.30;1.00
11577;DHT22;5844;51.496;6.788;2023-06-26T02:54:58;22.20;1.00
11577;DHT22;5844;51.496;6.788;2023-06-26T02:57:23;22.20;1.00
11577;DHT22;5844;51.496;6.788;2023-06-26T02:59:49;22.20;1.00
11577;DHT22;5844;51.496;6.788;2023-06-26T03:02:15;22.30;1.00
11577;DHT22;5844;51.496;6.788;2023-06-26T03:04:40;22.30;1.00
11577;DHT22;5844;51.496;6.788;2023-06-26T03:07:08;22.20;1.00
11577;DHT22;5844;51.496;6.788;2023-06-26T03:09:34;22.30;1.00
11577;DHT22;5844;51.496;6.788;2023-06-26T03:12:00;22.40;1.00
11577;DHT22;5844;51.496;6.788;2023-06-26T03:14:25;22.50;1.00
11577;DHT22;5844;51.496;6.788;2023-06-26T03:16:52;22.50;1.00
11577;DHT22;5844;51.496;6.788;2023-06-26T03:19:18;22.60;1.00
11577;DHT22;5844;51.496;6.788;2023-06-26T03:21:44;22.50;1.00
11577;DHT22;5844;51.496;6.788;2023-06-26T03:24:10;22.60;1.00
11577;DHT22;5844;51.496;6.788;2023-06-26T03:26:35;22.50;1.00
11577;DHT22;5844;51.496;6.788;2023-06-26T03:29:01;22.40;1.00
11577;DHT22;5844;51.496;6.788;2023-06-26T03:31:26;22.40;1.00
11577;DHT22;5844;51.496;6.788;2023-06-26T03:33:52;22.30;1.00
11577;DHT22;5844;51.496;6.788;2023-06-26T03:36:19;22.30;1.00
11577;DHT22;5844;51.496;6.788;2023-06-26T03:38:44;22.20;1.00
11577;DHT22;5844;51.496;6.788;2023-06-26T03:41:10;22.20;1.00
11577;DHT22;5844;51.496;6.788;2023-06-26T03:43:36;22.30;1.00
11577;DHT22;5844;51.496;6.788;2023-06-26T03:46:01;22.30;1.00
11577;DHT22;5844;51.496;6.788;2023-06-26T03:48:27;22.30;1.00
11577;DHT22;5844;51.496;6.788;2023-06-26T03:50:53;22.30;1.00
11577;DHT22;5844;51.496;6.788;2023-06-26T03:53:18;22.30;1.00
11577;DHT22;5844;51.496;6.788;2023-06-26T03:55:44;22.30;1.00
11577;DHT22;5844;51.496;6.788;2023-06-26T03:58:10;22.20;1.00
11577;DHT22;5844;51.496;6.788;2023-06-26T04:00:35;22.20;1.00
11577;DHT22;5844;51.496;6.788;2023-06-26T04:03:01;22.30;1.00
11577;DHT22;5844;51.496;6.788;2023-06-26T04:05:28;22.20;1.00
11577;DHT22;5844;51.496;6.788;2023-06-26T04:07:54;22.10;1.00
11577;DHT22;5844;51.496;6.788;2023-06-26T04:10:20;22.10;1.00
11577;DHT22;5844;51.496;6.788;2023-06-26T04:12:48;22.10;1.00
11577;DHT22;5844;51.496;6.788;2023-06-26T04:15:14;22.10;1.00
11577;DHT22;5844;51.496;6.788;2023-06-26T04:17:40;22.10;1.00
11577;DHT22;5844;51.496;6.788;2023-06-26T04:20:06;22.10;1.00
11577;DHT22;5844;51.496;6.788;2023-06-26T04:22:33;22.10;1.00
11577;DHT22;5844;51.496;6.788;2023-06-26T04:25:00;22.00;1.00
11577;DHT22;5844;51.496;6.788;2023-06-26T04:27:25;22.00;1.00
11577;DHT22;5844;51.496;6.788;2023-06-26T04:29:51;22.00;1.00
11577;DHT22;5844;51.496;6.788;2023-06-26T04:32:16;22.00;1.00
11577;DHT22;5844;51.496;6.788;2023-06-26T04:34:42;22.00;1.00
11577;DHT22;5844;51.496;6.788;2023-06-26T04:37:10;22.00;1.00
11577;DHT22;5844;51.496;6.788;2023-06-26T04:39:37;22.10;1.00
11577;DHT22;5844;51.496;6.788;2023-06-26T04:42:04;22.00;1.00
11577;DHT22;5844;51.496;6.788;2023-06-26T04:44:29;22.00;1.00
11577;DHT22;5844;51.496;6.788;2023-06-26T04:46:55;22.00;1.00
11577;DHT22;5844;51.496;6.788;2023-06-26T04:49:21;22.10;1.00
11577;DHT22;5844;51.496;6.788;2023-06-26T04:51:46;22.10;1.00
11577;DHT22;5844;51.496;6.788;2023-06-26T04:54:13;22.10;1.00
11577;DHT22;5844;51.496;6.788;2023-06-26T04:56:39;22.00;1.00
11577;DHT22;5844;51.496;6.788;2023-06-26T04:59:09;22.10;1.00
11577;DHT22;5844;51.496;6.788;2023-06-26T05:01:39;22.00;1.00
11577;DHT22;5844;51.496;6.788;2023-06-26T05:04:05;22.20;1.00
11577;DHT22;5844;51.496;6.788;2023-06-26T05:06:31;22.30;1.00
11577;DHT22;5844;51.496;6.788;2023-06-26T05:08:56;22.30;1.00
11577;DHT22;5844;51.496;6.788;2023-06-26T05:11:22;22.30;1.00
11577;DHT22;5844;51.496;6.788;2023-06-26T05:13:49;22.30;1.00
11577;DHT22;5844;51.496;6.788;2023-06-26T05:16:14;22.30;1.00
11577;DHT22;5844;51.496;6.788;2023-06-26T05:18:40;22.30;1.00
11577;DHT22;5844;51.496;6.788;2023-06-26T05:21:06;22.20;1.00
11577;DHT22;5844;51.496;6.788;2023-06-26T05:23:33;22.20;1.00
11577;DHT22;5844;51.496;6.788;2023-06-26T05:26:00;22.10;1.00
11577;DHT22;5844;51.496;6.788;2023-06-26T05:28:26;22.10;1.00
11577;DHT22;5844;51.496;6.788;2023-06-26T05:30:53;22.10;1.00
11577;DHT22;5844;51.496;6.788;2023-06-26T05:33:19;22.10;1.00
11577;DHT22;5844;51.496;6.788;2023-06-26T05:35:48;22.10;1.00
11577;DHT22;5844;51.496;6.788;2023-06-26T05:38:14;22.20;1.00
11577;DHT22;5844;51.496;6.788;2023-06-26T05:40:40;22.30;1.00
11577;DHT22;5844;51.496;6.788;2023-06-26T05:43:06;22.40;1.00
11577;DHT22;5844;51.496;6.788;2023-06-26T05:45:33;22.40;1.00
11577;DHT22;5844;51.496;6.788;2023-06-26T05:47:59;22.40;1.00
11577;DHT22;5844;51.496;6.788;2023-06-26T05:50:25;22.40;1.00
11577;DHT22;5844;51.496;6.788;2023-06-26T05:52:51;22.40;1.00
11577;DHT22;5844;51.496;6.788;2023-06-26T05:55:17;22.40;1.00
11577;DHT22;5844;51.496;6.788;2023-06-26T05:57:43;22.30;1.00
11577;DHT22;5844;51.496;6.788;2023-06-26T06:00:11;22.30;1.00
11577;DHT22;5844;51.496;6.788;2023-06-26T06:02:38;22.20;1.00
11577;DHT22;5844;51.496;6.788;2023-06-26T06:05:04;22.10;1.00
11577;DHT22;5844;51.496;6.788;2023-06-26T06:07:32;21.80;1.00
11577;DHT22;5844;51.496;6.788;2023-06-26T06:09:58;21.80;1.00
11577;DHT22;5844;51.496;6.788;2023-06-26T06:12:24;21.80;1.00
11577;DHT22;5844;51.496;6.788;2023-06-26T06:14:49;21.80;1.00
11577;DHT22;5844;51.496;6.788;2023-06-26T06:17:15;21.70;1.00
11577;DHT22;5844;51.496;6.788;2023-06-26T06:19:40;21.60;1.00
11577;DHT22;5844;51.496;6.788;2023-06-26T06:22:06;21.50;1.00
11577;DHT22;5844;51.496;6.788;2023-06-26T06:24:32;21.50;1.00
11577;DHT22;5844;51.496;6.788;2023-06-26T06:26:57;21.60;1.00
11577;DHT22;5844;51.496;6.788;2023-06-26T06:29:23;21.60;1.00
11577;DHT22;5844;51.496;6.788;2023-06-26T06:31:48;21.60;1.00
11577;DHT22;5844;51.496;6.788;2023-06-26T06:34:14;21.60;1.00
11577;DHT22;5844;51.496;6.788;2023-06-26T06:36:40;21.60;1.00
11577;DHT22;5844;51.496;6.788;2023-06-26T06:39:06;21.70;1.00
11577;DHT22;5844;51.496;6.788;2023-06-26T06:41:31;21.80;1.00
11577;DHT22;5844;51.496;6.788;2023-06-26T06:43:57;22.00;1.00
11577;DHT22;5844;51.496;6.788;2023-06-26T06:46:22;22.30;1.00
11577;DHT22;5844;51.496;6.788;2023-06-26T06:48:48;22.50;1.00
11577;DHT22;5844;51.496;6.788;2023-06-26T06:51:14;22.50;1.00
11577;DHT22;5844;51.496;6.788;2023-06-26T06:53:39;22.50;1.00
11577;DHT22;5844;51.496;6.788;2023-06-26T06:56:05;22.40;1.00
11577;DHT22;5844;51.496;6.788;2023-06-26T06:58:30;22.60;1.00
11577;DHT22;5844;51.496;6.788;2023-06-26T07:00:59;22.70;1.00
11577;DHT22;5844;51.496;6.788;2023-06-26T07:03:25;22.80;1.00
11577;DHT22;5844;51.496;6.788;2023-06-26T07:05:51;22.90;1.00
11577;DHT22;5844;51.496;6.788;2023-06-26T07:08:16;22.80;1.00
11577;DHT22;5844;51.496;6.788;2023-06-26T07:10:42;22.70;1.00
11577;DHT22;5844;51.496;6.788;2023-06-26T07:13:08;22.60;1.00
11577;DHT22;5844;51.496;6.788;2023-06-26T07:15:33;22.50;1.00
11577;DHT22;5844;51.496;6.788;2023-06-26T07:18:00;22.50;1.00
11577;DHT22;5844;51.496;6.788;2023-06-26T07:20:26;22.50;1.00
11577;DHT22;5844;51.496;6.788;2023-06-26T07:22:52;22.40;1.00
11577;DHT22;5844;51.496;6.788;2023-06-26T07:25:18;22.50;1.00
11577;DHT22;5844;51.496;6.788;2023-06-26T07:27:43;22.50;1.00
11577;DHT22;5844;51.496;6.788;2023-06-26T07:30:10;22.60;1.00
11577;DHT22;5844;51.496;6.788;2023-06-26T07:32:37;22.60;1.00
11577;DHT22;5844;51.496;6.788;2023-06-26T07:35:03;22.70;1.00
11577;DHT22;5844;51.496;6.788;2023-06-26T07:37:29;22.90;1.00
11577;DHT22;5844;51.496;6.788;2023-06-26T07:39:55;23.20;1.00
11577;DHT22;5844;51.496;6.788;2023-06-26T07:42:20;23.30;1.00
11577;DHT22;5844;51.496;6.788;2023-06-26T07:44:46;23.40;1.00
11577;DHT22;5844;51.496;6.788;2023-06-26T07:47:12;23.50;1.00
11577;DHT22;5844;51.496;6.788;2023-06-26T07:49:38;23.50;1.00
11577;DHT22;5844;51.496;6.788;2023-06-26T07:52:05;23.60;1.00
11577;DHT22;5844;51.496;6.788;2023-06-26T07:54:31;23.70;1.00
11577;DHT22;5844;51.496;6.788;2023-06-26T07:57:02;23.70;1.00
11577;DHT22;5844;51.496;6.788;2023-06-26T07:59:29;23.50;1.00
11577;DHT22;5844;51.496;6.788;2023-06-26T08:01:57;23.30;1.00
11577;DHT22;5844;51.496;6.788;2023-06-26T08:04:27;23.10;1.00
11577;DHT22;5844;51.496;6.788;2023-06-26T08:06:55;23.20;1.00
11577;DHT22;5844;51.496;6.788;2023-06-26T08:09:23;23.40;1.00
11577;DHT22;5844;51.496;6.788;2023-06-26T08:11:49;23.30;1.00
11577;DHT22;5844;51.496;6.788;2023-06-26T08:14:15;23.40;1.00
11577;DHT22;5844;51.496;6.788;2023-06-26T08:16:42;23.40;1.00
11577;DHT22;5844;51.496;6.788;2023-06-26T08:19:11;23.70;1.00
11577;DHT22;5844;51.496;6.788;2023-06-26T08:21:37;23.90;1.00
11577;DHT22;5844;51.496;6.788;2023-06-26T08:24:02;23.60;1.00
11577;DHT22;5844;51.496;6.788;2023-06-26T08:26:28;23.50;1.00
11577;DHT22;5844;51.496;6.788;2023-06-26T08:28:54;23.50;1.00
11577;DHT22;5844;51.496;6.788;2023-06-26T08:31:20;23.50;1.00
11577;DHT22;5844;51.496;6.788;2023-06-26T08:33:46;23.70;1.00
11577;DHT22;5844;51.496;6.788;2023-06-26T08:36:12;23.90;1.00
11577;DHT22;5844;51.496;6.788;2023-06-26T08:38:38;23.90;1.00
11577;DHT22;5844;51.496;6.788;2023-06-26T08:41:10;24.00;1.00
11577;DHT22;5844;51.496;6.788;2023-06-26T08:43:36;24.10;1.00
11577;DHT22;5844;51.496;6.788;2023-06-26T08:46:02;24.20;1.00
11577;DHT22;5844;51.496;6.788;2023-06-26T08:48:32;24.00;1.00
11577;DHT22;5844;51.496;6.788;2023-06-26T08:51:01;23.70;1.00
11577;DHT22;5844;51.496;6.788;2023-06-26T08:53:40;23.60;1.00
11577;DHT22;5844;51.496;6.788;2023-06-26T08:56:08;23.70;1.00
11577;DHT22;5844;51.496;6.788;2023-06-26T08:58:36;24.00;1.00
11577;DHT22;5844;51.496;6.788;2023-06-26T09:01:04;24.30;1.00
11577;DHT22;5844;51.496;6.788;2023-06-26T09:03:31;24.40;1.00
11577;DHT22;5844;51.496;6.788;2023-06-26T09:05:57;24.20;1.00
11577;DHT22;5844;51.496;6.788;2023-06-26T09:08:22;24.00;1.00
11577;DHT22;5844;51.496;6.788;2023-06-26T09:10:48;24.00;1.00
11577;DHT22;5844;51.496;6.788;2023-06-26T09:13:14;24.00;1.00
11577;DHT22;5844;51.496;6.788;2023-06-26T09:15:43;24.30;1.00
11577;DHT22;5844;51.496;6.788;2023-06-26T09:18:09;24.50;1.00
11577;DHT22;5844;51.496;6.788;2023-06-26T09:20:35;24.30;1.00
11577;DHT22;5844;51.496;6.788;2023-06-26T09:23:01;24.00;1.00
11577;DHT22;5844;51.496;6.788;2023-06-26T09:25:28;23.90;1.00
11577;DHT22;5844;51.496;6.788;2023-06-26T09:27:54;23.90;1.00
11577;DHT22;5844;51.496;6.788;2023-06-26T09:30:21;24.20;1.00
11577;DHT22;5844;51.496;6.788;2023-06-26T09:32:48;24.60;1.00
11577;DHT22;5844;51.496;6.788;2023-06-26T09:35:16;25.30;1.00
11577;DHT22;5844;51.496;6.788;2023-06-26T09:37:42;25.70;1.00
11577;DHT22;5844;51.496;6.788;2023-06-26T09:40:09;25.30;1.00
11577;DHT22;5844;51.496;6.788;2023-06-26T09:42:35;25.50;1.00
11577;DHT22;5844;51.496;6.788;2023-06-26T09:45:02;25.70;1.00
11577;DHT22;5844;51.496;6.788;2023-06-26T09:47:30;24.30;1.00
11577;DHT22;5844;51.496;6.788;2023-06-26T09:49:57;24.80;1.00
11577;DHT22;5844;51.496;6.788;2023-06-26T09:52:26;24.50;1.00
11577;DHT22;5844;51.496;6.788;2023-06-26T09:55:08;24.30;1.00
11577;DHT22;5844;51.496;6.788;2023-06-26T09:57:35;24.90;1.00
11577;DHT22;5844;51.496;6.788;2023-06-26T10:00:02;26.00;1.00
11577;DHT22;5844;51.496;6.788;2023-06-26T10:02:28;26.10;1.00
11577;DHT22;5844;51.496;6.788;2023-06-26T10:04:54;25.80;1.00
11577;DHT22;5844;51.496;6.788;2023-06-26T10:07:21;25.20;1.00
11577;DHT22;5844;51.496;6.788;2023-06-26T10:09:49;25.60;1.00
11577;DHT22;5844;51.496;6.788;2023-06-26T10:12:32;26.50;1.00
11577;DHT22;5844;51.496;6.788;2023-06-26T10:14:59;27.40;1.00
11577;DHT22;5844;51.496;6.788;2023-06-26T10:17:34;27.60;1.00
11577;DHT22;5844;51.496;6.788;2023-06-26T10:20:03;28.20;1.00
11577;DHT22;5844;51.496;6.788;2023-06-26T10:22:33;28.60;1.00
11577;DHT22;5844;51.496;6.788;2023-06-26T10:25:02;28.20;1.00
11577;DHT22;5844;51.496;6.788;2023-06-26T10:27:36;28.30;1.00
11577;DHT22;5844;51.496;6.788;2023-06-26T10:30:05;28.80;1.00
11577;DHT22;5844;51.496;6.788;2023-06-26T10:32:32;29.30;1.00
11577;DHT22;5844;51.496;6.788;2023-06-26T10:34:59;28.40;1.00
11577;DHT22;5844;51.496;6.788;2023-06-26T10:37:45;27.10;1.00
11577;DHT22;5844;51.496;6.788;2023-06-26T10:40:11;26.20;1.00
11577;DHT22;5844;51.496;6.788;2023-06-26T10:42:39;25.70;1.00
11577;DHT22;5844;51.496;6.788;2023-06-26T10:45:21;25.10;1.00
11577;DHT22;5844;51.496;6.788;2023-06-26T10:47:48;25.10;1.00
11577;DHT22;5844;51.496;6.788;2023-06-26T10:50:27;26.20;1.00
11577;DHT22;5844;51.496;6.788;2023-06-26T10:55:57;28.70;1.00
11577;DHT22;5844;51.496;6.788;2023-06-26T11:04:01;28.60;1.00
11577;DHT22;5844;51.496;6.788;2023-06-26T11:06:29;28.10;1.00
11577;DHT22;5844;51.496;6.788;2023-06-26T11:09:08;28.10;1.00
11577;DHT22;5844;51.496;6.788;2023-06-26T11:14:19;28.60;1.00
11577;DHT22;5844;51.496;6.788;2023-06-26T11:16:45;27.60;1.00
11577;DHT22;5844;51.496;6.788;2023-06-26T11:19:11;27.50;1.00
11577;DHT22;5844;51.496;6.788;2023-06-26T11:21:40;28.10;1.00
11577;DHT22;5844;51.496;6.788;2023-06-26T11:24:07;28.50;1.00
11577;DHT22;5844;51.496;6.788;2023-06-26T11:26:43;27.80;1.00
11577;DHT22;5844;51.496;6.788;2023-06-26T11:29:11;27.30;1.00
11577;DHT22;5844;51.496;6.788;2023-06-26T11:31:38;28.40;1.00
11577;DHT22;5844;51.496;6.788;2023-06-26T11:34:16;29.90;1.00
11577;DHT22;5844;51.496;6.788;2023-06-26T11:36:42;31.50;1.00
11577;DHT22;5844;51.496;6.788;2023-06-26T11:39:11;31.90;1.00
11577;DHT22;5844;51.496;6.788;2023-06-26T11:41:38;31.10;1.00
11577;DHT22;5844;51.496;6.788;2023-06-26T11:44:08;30.10;1.00
11577;DHT22;5844;51.496;6.788;2023-06-26T11:46:39;29.40;1.00
11577;DHT22;5844;51.496;6.788;2023-06-26T11:49:08;29.30;1.00
11577;DHT22;5844;51.496;6.788;2023-06-26T11:51:34;28.40;1.00
11577;DHT22;5844;51.496;6.788;2023-06-26T11:54:02;28.00;1.00
11577;DHT22;5844;51.496;6.788;2023-06-26T11:56:28;27.70;1.00
11577;DHT22;5844;51.496;6.788;2023-06-26T12:01:44;28.30;1.00
11577;DHT22;5844;51.496;6.788;2023-06-26T12:04:16;28.20;1.00
11577;DHT22;5844;51.496;6.788;2023-06-26T12:06:46;28.80;1.00
11577;DHT22;5844;51.496;6.788;2023-06-26T12:09:14;29.20;1.00
11577;DHT22;5844;51.496;6.788;2023-06-26T12:11:44;30.00;1.00
11577;DHT22;5844;51.496;6.788;2023-06-26T12:14:10;30.40;1.00
11577;DHT22;5844;51.496;6.788;2023-06-26T12:16:37;30.60;1.00
11577;DHT22;5844;51.496;6.788;2023-06-26T12:19:06;29.90;1.00
11577;DHT22;5844;51.496;6.788;2023-06-26T12:21:45;28.70;1.00
11577;DHT22;5844;51.496;6.788;2023-06-26T12:24:19;28.40;1.00
11577;DHT22;5844;51.496;6.788;2023-06-26T12:26:49;28.70;1.00
11577;DHT22;5844;51.496;6.788;2023-06-26T12:29:16;29.20;1.00
11577;DHT22;5844;51.496;6.788;2023-06-26T12:31:49;28.70;1.00
11577;DHT22;5844;51.496;6.788;2023-06-26T12:34:19;28.60;1.00
11577;DHT22;5844;51.496;6.788;2023-06-26T12:36:49;28.50;1.00
11577;DHT22;5844;51.496;6.788;2023-06-26T12:39:17;29.30;1.00
11577;DHT22;5844;51.496;6.788;2023-06-26T12:42:02;30.60;1.00
11577;DHT22;5844;51.496;6.788;2023-06-26T12:44:29;32.20;1.00
11577;DHT22;5844;51.496;6.788;2023-06-26T12:47:05;32.90;1.00
11577;DHT22;5844;51.496;6.788;2023-06-26T12:49:39;33.00;1.00
11577;DHT22;5844;51.496;6.788;2023-06-26T12:52:07;31.50;1.00
11577;DHT22;5844;51.496;6.788;2023-06-26T12:54:34;31.90;1.00
11577;DHT22;5844;51.496;6.788;2023-06-26T12:57:00;30.80;1.00
11577;DHT22;5844;51.496;6.788;2023-06-26T12:59:26;30.20;1.00
11577;DHT22;5844;51.496;6.788;2023-06-26T13:01:52;30.10;1.00
11577;DHT22;5844;51.496;6.788;2023-06-26T13:04:18;29.70;1.00
11577;DHT22;5844;51.496;6.788;2023-06-26T13:06:43;28.40;1.00
11577;DHT22;5844;51.496;6.788;2023-06-26T13:09:09;28.20;1.00
11577;DHT22;5844;51.496;6.788;2023-06-26T13:11:37;28.70;1.00
11577;DHT22;5844;51.496;6.788;2023-06-26T13:14:03;29.10;1.00
11577;DHT22;5844;51.496;6.788;2023-06-26T13:16:29;29.20;1.00
11577;DHT22;5844;51.496;6.788;2023-06-26T13:18:54;29.50;1.00
11577;DHT22;5844;51.496;6.788;2023-06-26T13:21:21;30.70;1.00
11577;DHT22;5844;51.496;6.788;2023-06-26T13:23:47;31.10;1.00
11577;DHT22;5844;51.496;6.788;2023-06-26T13:26:13;31.70;1.00
11577;DHT22;5844;51.496;6.788;2023-06-26T13:28:38;31.60;1.00
11577;DHT22;5844;51.496;6.788;2023-06-26T13:31:04;31.40;1.00
11577;DHT22;5844;51.496;6.788;2023-06-26T13:33:30;30.80;1.00
11577;DHT22;5844;51.496;6.788;2023-06-26T13:35:57;31.50;1.00
11577;DHT22;5844;51.496;6.788;2023-06-26T13:38:24;31.00;1.00
11577;DHT22;5844;51.496;6.788;2023-06-26T13:40:53;31.00;1.00
11577;DHT22;5844;51.496;6.788;2023-06-26T13:43:21;31.40;1.00
11577;DHT22;5844;51.496;6.788;2023-06-26T13:45:48;31.80;1.00
11577;DHT22;5844;51.496;6.788;2023-06-26T13:48:13;32.20;1.00
11577;DHT22;5844;51.496;6.788;2023-06-26T13:50:39;32.50;1.00
11577;DHT22;5844;51.496;6.788;2023-06-26T13:53:05;31.70;1.00
11577;DHT22;5844;51.496;6.788;2023-06-26T13:55:31;32.50;1.00
11577;DHT22;5844;51.496;6.788;2023-06-26T13:57:58;33.50;1.00
11577;DHT22;5844;51.496;6.788;2023-06-26T14:00:24;33.70;1.00
11577;DHT22;5844;51.496;6.788;2023-06-26T14:02:49;34.20;1.00
11577;DHT22;5844;51.496;6.788;2023-06-26T14:05:15;34.60;1.00
11577;DHT22;5844;51.496;6.788;2023-06-26T14:07:42;33.50;1.00
11577;DHT22;5844;51.496;6.788;2023-06-26T14:10:09;32.90;1.00
11577;DHT22;5844;51.496;6.788;2023-06-26T14:12:34;32.70;1.00
11577;DHT22;5844;51.496;6.788;2023-06-26T14:15:00;31.50;1.00
11577;DHT22;5844;51.496;6.788;2023-06-26T14:17:26;31.50;1.00
11577;DHT22;5844;51.496;6.788;2023-06-26T14:19:52;30.80;1.00
11577;DHT22;5844;51.496;6.788;2023-06-26T14:22:18;29.60;1.00
11577;DHT22;5844;51.496;6.788;2023-06-26T14:24:44;29.00;1.00
11577;DHT22;5844;51.496;6.788;2023-06-26T14:27:10;28.90;1.00
11577;DHT22;5844;51.496;6.788;2023-06-26T14:29:36;28.50;1.00
11577;DHT22;5844;51.496;6.788;2023-06-26T14:32:02;27.50;1.00
11577;DHT22;5844;51.496;6.788;2023-06-26T14:34:28;27.60;1.00
11577;DHT22;5844;51.496;6.788;2023-06-26T14:36:54;27.90;1.00
11577;DHT22;5844;51.496;6.788;2023-06-26T14:39:19;27.90;1.00
11577;DHT22;5844;51.496;6.788;2023-06-26T14:41:45;27.70;1.00
11577;DHT22;5844;51.496;6.788;2023-06-26T14:44:13;27.70;1.00
11577;DHT22;5844;51.496;6.788;2023-06-26T14:46:38;27.80;1.00
11577;DHT22;5844;51.496;6.788;2023-06-26T14:49:05;27.70;1.00
11577;DHT22;5844;51.496;6.788;2023-06-26T14:51:31;27.30;1.00
11577;DHT22;5844;51.496;6.788;2023-06-26T14:53:56;27.20;1.00
11577;DHT22;5844;51.496;6.788;2023-06-26T14:56:22;27.00;1.00
11577;DHT22;5844;51.496;6.788;2023-06-26T14:58:49;26.70;1.00
11577;DHT22;5844;51.496;6.788;2023-06-26T15:01:14;27.10;1.00
11577;DHT22;5844;51.496;6.788;2023-06-26T15:03:45;27.90;1.00
11577;DHT22;5844;51.496;6.788;2023-06-26T15:06:11;28.70;1.00
11577;DHT22;5844;51.496;6.788;2023-06-26T15:08:36;30.20;1.00
11577;DHT22;5844;51.496;6.788;2023-06-26T15:11:02;30.70;1.00
11577;DHT22;5844;51.496;6.788;2023-06-26T15:13:30;31.10;1.00
11577;DHT22;5844;51.496;6.788;2023-06-26T15:15:56;31.50;1.00
11577;DHT22;5844;51.496;6.788;2023-06-26T15:18:22;31.20;1.00
11577;DHT22;5844;51.496;6.788;2023-06-26T15:20:47;31.10;1.00
11577;DHT22;5844;51.496;6.788;2023-06-26T15:23:13;31.30;1.00
11577;DHT22;5844;51.496;6.788;2023-06-26T15:25:39;31.90;1.00
11577;DHT22;5844;51.496;6.788;2023-06-26T15:28:05;31.80;1.00
11577;DHT22;5844;51.496;6.788;2023-06-26T15:30:32;32.10;1.00
11577;DHT22;5844;51.496;6.788;2023-06-26T15:32:57;32.30;1.00
11577;DHT22;5844;51.496;6.788;2023-06-26T15:35:23;31.20;1.00
11577;DHT22;5844;51.496;6.788;2023-06-26T15:37:49;30.10;1.00
11577;DHT22;5844;51.496;6.788;2023-06-26T15:40:15;29.30;1.00
11577;DHT22;5844;51.496;6.788;2023-06-26T15:42:46;28.30;1.00
11577;DHT22;5844;51.496;6.788;2023-06-26T15:45:12;27.70;1.00
11577;DHT22;5844;51.496;6.788;2023-06-26T15:47:39;27.20;1.00
11577;DHT22;5844;51.496;6.788;2023-06-26T15:50:05;26.80;1.00
11577;DHT22;5844;51.496;6.788;2023-06-26T15:52:31;26.40;1.00
11577;DHT22;5844;51.496;6.788;2023-06-26T15:54:57;25.90;1.00
11577;DHT22;5844;51.496;6.788;2023-06-26T15:57:22;25.40;1.00
11577;DHT22;5844;51.496;6.788;2023-06-26T15:59:48;25.10;1.00
11577;DHT22;5844;51.496;6.788;2023-06-26T16:02:15;25.00;1.00
11577;DHT22;5844;51.496;6.788;2023-06-26T16:04:40;24.90;1.00
11577;DHT22;5844;51.496;6.788;2023-06-26T16:07:06;24.90;1.00
11577;DHT22;5844;51.496;6.788;2023-06-26T16:09:32;24.80;1.00
11577;DHT22;5844;51.496;6.788;2023-06-26T16:11:57;24.90;1.00
11577;DHT22;5844;51.496;6.788;2023-06-26T16:14:23;24.80;1.00
11577;DHT22;5844;51.496;6.788;2023-06-26T16:16:49;24.70;1.00
11577;DHT22;5844;51.496;6.788;2023-06-26T16:19:14;24.50;1.00